createdAt,value
2022-08-04T00:00:09.972Z,2.08
2022-08-04T00:02:48.614Z,2.40
2022-08-04T00:05:29.286Z,2.33
2022-08-04T00:08:12.340Z,2.63
2022-08-04T00:13:09.566Z,2.05
2022-08-04T00:15:37.524Z,2.00
2022-08-04T00:18:07.464Z,2.30
2022-08-04T00:20:41.030Z,2.28
2022-08-04T00:23:08.372Z,2.20
2022-08-04T00:25:40.660Z,2.70
2022-08-04T00:28:07.486Z,2.90
2022-08-04T00:30:34.128Z,2.50
2022-08-04T00:33:00.834Z,2.03
2022-08-04T00:35:29.272Z,2.08
2022-08-04T00:37:56.303Z,3.00
2022-08-04T00:40:32.855Z,2.30
2022-08-04T00:43:10.526Z,2.13
2022-08-04T00:46:14.937Z,1.80
2022-08-04T00:49:01.009Z,2.00
2022-08-04T00:51:42.476Z,2.05
2022-08-04T00:54:23.974Z,2.55
2022-08-04T00:57:28.638Z,2.92
2022-08-04T01:00:11.946Z,2.50
2022-08-04T01:03:00.889Z,2.35
2022-08-04T01:06:08.839Z,2.45
2022-08-04T01:09:00.467Z,2.47
2022-08-04T01:11:56.887Z,2.50
2022-08-04T01:15:05.580Z,2.20
2022-08-04T01:18:06.133Z,3.00
2022-08-04T01:21:00.385Z,1.90
2022-08-04T01:23:49.703Z,2.33
2022-08-04T01:26:43.289Z,2.15
2022-08-04T01:29:29.305Z,2.03
2022-08-04T01:32:26.407Z,2.30
2022-08-04T01:35:47.528Z,2.30
2022-08-04T01:38:33.648Z,2.17
2022-08-04T01:41:05.268Z,2.60
2022-08-04T01:43:34.602Z,3.00
2022-08-04T01:46:04.786Z,2.53
2022-08-04T01:48:32.455Z,2.42
2022-08-04T01:51:06.974Z,2.42
2022-08-04T01:53:36.725Z,2.70
2022-08-04T01:56:05.022Z,2.28
2022-08-04T01:58:33.426Z,2.15
2022-08-04T02:01:08.763Z,1.98
2022-08-04T02:04:21.937Z,2.03
2022-08-04T02:06:35.740Z,2.08
2022-08-04T02:09:28.584Z,1.80
2022-08-04T02:12:16.291Z,2.05
2022-08-04T02:14:55.589Z,2.22
2022-08-04T02:17:24.575Z,2.47
2022-08-04T02:20:16.322Z,2.20
2022-08-04T02:23:09.810Z,2.88
2022-08-04T02:25:46.030Z,2.40
2022-08-04T02:28:22.052Z,2.42
2022-08-04T02:31:03.042Z,2.20
2022-08-04T02:33:44.730Z,2.22
2022-08-04T02:36:17.371Z,2.45
2022-08-04T02:38:49.731Z,2.33
2022-08-04T02:41:20.061Z,2.63
2022-08-04T02:43:52.211Z,2.10
2022-08-04T02:46:21.195Z,2.45
2022-08-04T02:48:49.262Z,2.40
2022-08-04T02:51:22.914Z,2.47
2022-08-04T02:53:55.468Z,2.25
2022-08-04T02:56:23.208Z,2.22
2022-08-04T02:58:56.490Z,2.33
2022-08-04T03:01:24.060Z,2.03
2022-08-04T03:04:01.343Z,2.22
2022-08-04T03:06:49.139Z,2.60
2022-08-04T03:09:28.014Z,2.20
2022-08-04T03:12:01.667Z,2.47
2022-08-04T03:15:01.303Z,2.50
2022-08-04T03:17:55.580Z,1.95
2022-08-04T03:20:46.751Z,2.35
2022-08-04T03:23:39.112Z,2.13
2022-08-04T03:26:17.767Z,2.50
2022-08-04T03:29:11.756Z,2.40
2022-08-04T03:31:47.702Z,2.60
2022-08-04T03:34:33.028Z,1.60
2022-08-04T03:37:00.106Z,2.42
2022-08-04T03:39:54.110Z,2.25
2022-08-04T03:42:31.029Z,2.53
2022-08-04T03:44:57.556Z,2.20
2022-08-04T03:47:33.093Z,2.50
2022-08-04T03:51:34.119Z,2.20
2022-08-04T03:54:38.228Z,2.00
2022-08-04T03:57:10.702Z,2.30
2022-08-04T04:00:06.553Z,2.08
2022-08-04T04:03:05.351Z,2.42
2022-08-04T04:06:02.427Z,2.30
2022-08-04T04:09:01.925Z,1.83
2022-08-04T04:11:34.306Z,2.63
2022-08-04T04:14:46.530Z,2.10
2022-08-04T04:17:25.149Z,2.70
2022-08-04T04:20:25.149Z,1.90
2022-08-04T04:23:05.796Z,2.35
2022-08-04T04:26:01.265Z,2.40
2022-08-04T04:28:47.157Z,2.47
2022-08-04T04:31:40.050Z,2.22
2022-08-04T04:34:21.521Z,1.75
2022-08-04T04:37:01.822Z,2.92
2022-08-04T04:39:50.476Z,2.40
2022-08-04T04:42:23.212Z,2.20
2022-08-04T04:45:17.266Z,2.10
2022-08-04T04:48:09.768Z,2.35
2022-08-04T04:51:05.842Z,2.30
2022-08-04T04:54:09.723Z,2.38
2022-08-04T04:57:03.512Z,1.92
2022-08-04T04:59:34.903Z,1.83
2022-08-04T05:02:25.187Z,1.88
2022-08-04T05:05:15.722Z,1.60
2022-08-04T05:08:44.889Z,2.10
2022-08-04T05:11:26.100Z,1.42
2022-08-04T05:14:37.037Z,2.08
2022-08-04T05:16:47.956Z,2.45
2022-08-04T05:19:23.914Z,1.95
2022-08-04T05:21:57.301Z,2.58
2022-08-04T05:24:26.286Z,1.65
2022-08-04T05:26:56.979Z,1.80
2022-08-04T05:29:34.596Z,1.75
2022-08-04T05:32:08.789Z,1.58
2022-08-04T05:34:45.335Z,1.70
2022-08-04T05:37:16.570Z,1.70
2022-08-04T05:39:47.981Z,1.80
2022-08-04T05:42:15.605Z,1.80
2022-08-04T05:44:47.610Z,1.83
2022-08-04T05:47:17.717Z,2.15
2022-08-04T05:49:45.751Z,1.67
2022-08-04T05:52:28.652Z,1.60
2022-08-04T05:54:56.555Z,2.45
2022-08-04T05:57:23.903Z,1.73
2022-08-04T05:59:52.213Z,2.10
2022-08-04T06:02:20.309Z,1.75
2022-08-04T06:04:51.438Z,1.88
2022-08-04T06:07:18.853Z,1.80
2022-08-04T06:09:45.637Z,1.77
2022-08-04T06:12:19.288Z,1.92
2022-08-04T06:14:48.787Z,1.73
2022-08-04T06:18:35.063Z,2.08
2022-08-04T06:20:19.694Z,1.60
2022-08-04T06:22:55.575Z,2.03
2022-08-04T06:27:57.125Z,1.58
2022-08-04T06:30:26.998Z,2.15
2022-08-04T06:33:04.013Z,1.83
2022-08-04T06:35:33.245Z,1.67
2022-08-04T06:38:01.679Z,1.73
2022-08-04T06:40:33.177Z,2.20
2022-08-04T06:43:06.726Z,1.97
2022-08-04T06:48:06.610Z,1.48
2022-08-04T06:51:25.592Z,1.70
2022-08-04T06:53:22.743Z,1.50
2022-08-04T06:55:50.688Z,1.95
2022-08-04T06:58:19.562Z,1.90
2022-08-04T07:00:48.050Z,2.08
2022-08-04T07:03:17.126Z,1.58
2022-08-04T07:05:46.254Z,1.88
2022-08-04T07:08:13.397Z,2.05
2022-08-04T07:10:40.713Z,1.70
2022-08-04T07:13:09.559Z,2.00
2022-08-04T07:15:39.082Z,1.67
2022-08-04T07:18:05.849Z,1.67
2022-08-04T07:20:35.812Z,2.08
2022-08-04T07:23:07.492Z,1.45
2022-08-04T07:26:00.536Z,2.00
2022-08-04T07:28:25.013Z,1.60
2022-08-04T07:30:53.693Z,1.70
2022-08-04T07:33:21.014Z,1.70
2022-08-04T07:36:09.765Z,1.80
2022-08-04T07:38:46.494Z,1.70
2022-08-04T07:41:43.291Z,1.80
2022-08-04T07:44:14.677Z,1.33
2022-08-04T07:46:42.555Z,1.83
2022-08-04T07:49:10.104Z,1.90
2022-08-04T07:51:37.684Z,1.90
2022-08-04T07:54:05.948Z,1.75
2022-08-04T07:56:36.125Z,2.03
2022-08-04T07:59:02.835Z,1.50
2022-08-04T08:01:30.111Z,1.80
2022-08-04T08:03:58.137Z,1.80
2022-08-04T08:06:32.243Z,1.88
2022-08-04T08:09:12.125Z,1.70
2022-08-04T08:12:36.220Z,1.73
2022-08-04T08:14:30.399Z,1.60
2022-08-04T08:16:59.245Z,1.70
2022-08-04T08:19:25.848Z,1.83
2022-08-04T08:21:58.636Z,1.75
2022-08-04T08:24:30.619Z,1.60
2022-08-04T08:26:58.335Z,2.00
2022-08-04T08:29:26.627Z,1.90
2022-08-04T08:31:58.368Z,1.90
2022-08-04T08:34:29.132Z,1.83
2022-08-04T08:37:03.822Z,2.00
2022-08-04T08:40:10.532Z,1.67
2022-08-04T08:42:49.313Z,2.70
2022-08-04T08:45:57.991Z,1.80
2022-08-04T08:48:50.113Z,1.88
2022-08-04T08:51:47.608Z,1.70
2022-08-04T08:55:10.468Z,1.50
2022-08-04T08:58:00.244Z,1.77
2022-08-04T09:00:46.157Z,1.70
2022-08-04T09:03:40.218Z,1.67
2022-08-04T09:06:24.905Z,1.75
2022-08-04T09:09:14.995Z,1.67
2022-08-04T09:11:56.165Z,1.90
2022-08-04T09:14:35.143Z,1.63
2022-08-04T09:17:05.514Z,1.60
2022-08-04T09:19:51.604Z,1.85
2022-08-04T09:22:29.819Z,1.90
2022-08-04T09:25:05.278Z,1.75
2022-08-04T09:27:44.547Z,1.90
2022-08-04T09:30:13.628Z,1.67
2022-08-04T09:33:11.505Z,1.50
2022-08-04T09:35:48.906Z,1.35
2022-08-04T09:38:38.820Z,1.52
2022-08-04T09:41:48.848Z,1.65
2022-08-04T09:44:52.610Z,1.35
2022-08-04T09:47:20.655Z,1.70
2022-08-04T09:50:19.860Z,1.60
2022-08-04T09:53:06.523Z,1.80
2022-08-04T09:56:03.547Z,2.25
2022-08-04T09:58:44.549Z,1.48
2022-08-04T10:01:22.640Z,1.50
2022-08-04T10:03:55.070Z,1.30
2022-08-04T10:06:40.457Z,1.92
2022-08-04T10:09:30.074Z,1.67
2022-08-04T10:12:20.625Z,1.85
2022-08-04T10:14:47.143Z,1.40
2022-08-04T10:17:20.525Z,1.85
2022-08-04T10:20:01.579Z,1.42
2022-08-04T10:23:02.319Z,1.27
2022-08-04T10:26:06.935Z,1.85
2022-08-04T10:28:43.204Z,1.30
2022-08-04T10:31:15.914Z,1.77
2022-08-04T10:33:53.254Z,1.55
2022-08-04T10:36:24.118Z,1.42
2022-08-04T10:39:01.202Z,1.65
2022-08-04T10:41:39.875Z,1.50
2022-08-04T10:44:23.461Z,1.60
2022-08-04T10:46:56.289Z,1.20
2022-08-04T10:49:33.042Z,1.35
2022-08-04T10:52:07.571Z,1.45
2022-08-04T10:54:55.868Z,1.42
2022-08-04T10:57:46.391Z,1.42
2022-08-04T11:00:16.526Z,1.40
2022-08-04T11:03:05.872Z,1.40
2022-08-04T11:05:43.863Z,1.30
2022-08-04T11:08:26.214Z,1.42
2022-08-04T11:11:06.708Z,1.23
2022-08-04T11:13:45.043Z,1.10
2022-08-04T11:16:27.719Z,1.10
2022-08-04T11:19:15.527Z,0.93
2022-08-04T11:21:55.447Z,1.25
2022-08-04T11:24:46.810Z,1.50
2022-08-04T11:27:25.822Z,1.10
2022-08-04T11:30:05.435Z,1.45
2022-08-04T11:32:46.964Z,1.35
2022-08-04T11:35:27.731Z,1.30
2022-08-04T11:38:04.991Z,1.38
2022-08-04T11:40:48.371Z,1.50
2022-08-04T11:44:02.633Z,1.60
2022-08-04T11:46:42.262Z,1.42
2022-08-04T11:49:16.692Z,1.55
2022-08-04T11:51:45.828Z,1.42
2022-08-04T11:54:13.778Z,1.23
2022-08-04T11:56:40.661Z,1.42
2022-08-04T11:59:10.336Z,1.65
2022-08-04T12:02:06.529Z,1.40
2022-08-04T12:04:58.519Z,1.23
2022-08-04T12:07:32.068Z,1.25
2022-08-04T12:10:47.417Z,1.08
2022-08-04T12:13:40.743Z,1.20
2022-08-04T12:16:30.676Z,0.90
2022-08-04T12:19:14.418Z,1.10
2022-08-04T12:21:53.300Z,1.20
2022-08-04T12:24:28.057Z,1.00
2022-08-04T12:26:58.395Z,1.00
2022-08-04T12:29:27.648Z,1.35
2022-08-04T12:32:00.559Z,1.50
2022-08-04T12:34:34.205Z,1.27
2022-08-04T12:37:12.878Z,1.30
2022-08-04T12:40:27.433Z,1.10
2022-08-04T12:42:42.172Z,1.20
2022-08-04T12:45:27.180Z,1.25
2022-08-04T12:47:58.158Z,1.42
2022-08-04T12:50:25.599Z,1.50
2022-08-04T12:53:04.027Z,1.40
2022-08-04T12:55:34.338Z,1.50
2022-08-04T12:58:11.690Z,1.65
2022-08-04T13:00:41.792Z,2.15
2022-08-04T13:03:12.498Z,1.75
2022-08-04T13:05:43.396Z,1.27
2022-08-04T13:08:12.707Z,2.00
2022-08-04T13:10:46.510Z,2.20
2022-08-04T13:13:21.974Z,2.72
2022-08-04T13:16:02.866Z,2.45
2022-08-04T13:18:33.342Z,3.17
2022-08-04T13:21:23.167Z,2.78
2022-08-04T13:24:20.927Z,3.50
2022-08-04T13:27:09.115Z,2.33
2022-08-04T13:30:00.043Z,2.30
2022-08-04T13:32:29.828Z,2.33
2022-08-04T13:34:59.973Z,2.33
2022-08-04T13:37:33.511Z,2.20
2022-08-04T13:40:01.918Z,2.55
2022-08-04T13:42:29.510Z,1.90
2022-08-04T13:44:59.731Z,2.25
2022-08-04T13:47:32.002Z,1.98
2022-08-04T13:50:18.293Z,1.88
2022-08-04T13:52:47.086Z,1.52
2022-08-04T13:55:42.871Z,1.80
2022-08-04T13:58:13.999Z,1.17
2022-08-04T14:00:42.534Z,1.40
2022-08-04T14:03:23.130Z,1.60
2022-08-04T14:06:27.040Z,1.27
2022-08-04T14:08:59.185Z,1.33
2022-08-04T14:12:09.411Z,1.60
2022-08-04T14:14:29.440Z,1.60
2022-08-04T14:17:00.711Z,1.50
2022-08-04T14:19:36.057Z,1.17
2022-08-04T14:22:03.594Z,1.60
2022-08-04T14:24:32.497Z,1.30
2022-08-04T14:27:00.741Z,1.17
2022-08-04T14:29:37.169Z,1.67
2022-08-04T14:32:12.568Z,1.20
2022-08-04T14:34:45.727Z,1.90
2022-08-04T14:37:20.516Z,1.27
2022-08-04T14:40:07.907Z,1.05
2022-08-04T14:42:41.411Z,1.50
2022-08-04T14:45:08.772Z,1.27
2022-08-04T14:47:39.631Z,1.30
2022-08-04T14:50:07.894Z,0.90
2022-08-04T14:52:37.290Z,0.85
2022-08-04T14:55:21.214Z,1.10
2022-08-04T14:58:36.227Z,1.15
2022-08-04T15:00:37.016Z,1.10
2022-08-04T15:03:10.629Z,1.27
2022-08-04T15:06:01.699Z,1.08
2022-08-04T15:08:31.023Z,1.10
2022-08-04T15:11:03.239Z,1.30
2022-08-04T15:13:33.510Z,1.17
2022-08-04T15:16:06.687Z,1.00
2022-08-04T15:18:37.031Z,1.27
2022-08-04T15:21:04.774Z,1.10
2022-08-04T15:23:38.774Z,1.08
2022-08-04T15:26:09.957Z,0.93
2022-08-04T15:28:38.615Z,1.10
2022-08-04T15:31:10.646Z,0.90
2022-08-04T15:33:58.316Z,0.90
2022-08-04T15:36:33.470Z,0.95
2022-08-04T15:39:11.921Z,1.10
2022-08-04T15:42:15.079Z,1.15
2022-08-04T15:44:53.298Z,1.50
2022-08-04T15:47:26.024Z,1.10
2022-08-04T15:50:11.034Z,0.98
2022-08-04T15:53:00.791Z,1.10
2022-08-04T15:55:44.185Z,1.20
2022-08-04T15:58:15.683Z,1.20
2022-08-04T16:00:47.967Z,0.98
2022-08-04T16:04:00.562Z,1.05
2022-08-04T16:06:29.774Z,1.30
2022-08-04T16:09:02.624Z,0.88
2022-08-04T16:11:30.988Z,1.10
2022-08-04T16:14:05.479Z,1.27
2022-08-04T16:16:46.874Z,1.13
2022-08-04T16:19:41.519Z,1.02
2022-08-04T16:22:13.148Z,1.30
2022-08-04T16:24:41.795Z,1.45
2022-08-04T16:27:13.114Z,1.42
2022-08-04T16:29:45.684Z,1.20
2022-08-04T16:35:00.096Z,1.15
2022-08-04T16:37:31.246Z,1.70
2022-08-04T16:40:34.406Z,1.70
2022-08-04T16:43:13.286Z,1.45
2022-08-04T16:45:55.962Z,1.55
2022-08-04T16:48:35.718Z,1.20
2022-08-04T16:51:08.105Z,1.48
2022-08-04T16:53:53.578Z,1.98
2022-08-04T16:56:33.101Z,1.60
2022-08-04T16:59:10.037Z,1.80
2022-08-04T17:01:38.305Z,1.88
2022-08-04T17:04:05.780Z,1.70
2022-08-04T17:06:38.120Z,2.20
2022-08-04T17:09:07.446Z,1.90
2022-08-04T17:11:34.286Z,1.90
2022-08-04T17:14:05.418Z,1.98
2022-08-04T17:16:36.161Z,1.88
2022-08-04T17:19:03.762Z,1.95
2022-08-04T17:21:32.626Z,2.00
2022-08-04T17:24:15.756Z,1.80
2022-08-04T17:26:53.602Z,1.83
2022-08-04T17:29:21.676Z,1.60
2022-08-04T17:31:48.482Z,1.75
2022-08-04T17:34:16.651Z,2.10
2022-08-04T17:36:47.639Z,1.85
2022-08-04T17:39:20.225Z,1.67
2022-08-04T17:41:49.677Z,1.63
2022-08-04T17:44:17.695Z,1.75
2022-08-04T17:46:48.459Z,1.95
2022-08-04T17:49:18.397Z,1.70
2022-08-04T17:52:06.722Z,2.03
2022-08-04T17:54:39.578Z,1.80
2022-08-04T17:57:23.034Z,1.88
2022-08-04T17:59:59.941Z,2.00
2022-08-04T18:02:34.087Z,1.88
2022-08-04T18:05:08.027Z,2.33
2022-08-04T18:08:35.624Z,1.60
2022-08-04T18:13:22.372Z,1.60
2022-08-04T18:15:51.183Z,1.70
2022-08-04T18:18:21.636Z,2.20
2022-08-04T18:20:50.103Z,1.95
2022-08-04T18:23:17.055Z,1.88
2022-08-04T18:25:51.059Z,1.92
2022-08-04T18:28:26.476Z,1.85
2022-08-04T18:30:55.693Z,1.80
2022-08-04T18:33:40.148Z,2.00
2022-08-04T18:36:33.752Z,2.10
2022-08-04T18:38:59.041Z,1.80
2022-08-04T18:41:29.119Z,1.85
2022-08-04T18:44:15.703Z,2.00
2022-08-04T18:46:55.699Z,1.80
2022-08-04T18:51:00.922Z,2.22
2022-08-04T18:52:14.928Z,2.10
2022-08-04T18:54:42.793Z,1.60
2022-08-04T18:59:56.606Z,1.80
2022-08-04T19:02:23.435Z,2.13
2022-08-04T19:04:53.279Z,2.25
2022-08-04T19:07:29.246Z,2.13
2022-08-04T19:12:43.607Z,2.03
2022-08-04T19:15:12.197Z,2.13
2022-08-04T19:17:54.149Z,2.22
2022-08-04T19:20:26.346Z,2.10
2022-08-04T19:24:10.129Z,2.00
2022-08-04T19:25:41.538Z,2.10
2022-08-04T19:28:29.836Z,2.58
2022-08-04T19:30:58.106Z,1.90
2022-08-04T19:33:25.350Z,2.03
2022-08-04T19:35:52.659Z,2.30
2022-08-04T19:38:20.696Z,2.20
2022-08-04T19:40:50.510Z,1.60
2022-08-04T19:43:20.819Z,1.80
2022-08-04T19:45:51.122Z,2.33
2022-08-04T19:48:19.997Z,1.70
2022-08-04T19:50:48.358Z,1.20
2022-08-04T19:53:19.676Z,1.15
2022-08-04T19:55:49.468Z,1.30
2022-08-04T19:58:17.824Z,1.40
2022-08-04T20:00:50.854Z,1.33
2022-08-04T20:03:20.424Z,1.30
2022-08-04T20:05:53.461Z,1.00
2022-08-04T20:08:23.949Z,1.00
2022-08-04T20:10:51.953Z,1.10
2022-08-04T20:13:20.024Z,1.10
2022-08-04T20:15:57.439Z,1.00
2022-08-04T20:18:34.886Z,0.80
2022-08-04T20:21:03.700Z,1.00
2022-08-04T20:23:48.643Z,0.90
2022-08-04T20:26:16.866Z,1.10
2022-08-04T20:28:45.889Z,1.30
2022-08-04T20:31:18.758Z,0.73
2022-08-04T20:33:49.153Z,0.93
2022-08-04T20:36:20.970Z,0.82
2022-08-04T20:38:51.754Z,0.90
2022-08-04T20:41:19.643Z,0.97
2022-08-04T20:43:49.568Z,0.90
2022-08-04T20:46:28.958Z,1.05
2022-08-04T20:48:57.288Z,1.05
2022-08-04T20:51:31.987Z,0.98
2022-08-04T20:54:01.258Z,1.13
2022-08-04T20:56:31.013Z,1.48
2022-08-04T20:58:59.919Z,1.00
2022-08-04T21:01:29.826Z,1.55
2022-08-04T21:04:27.237Z,1.10
2022-08-04T21:06:59.837Z,1.20
2022-08-04T21:09:38.363Z,1.40
2022-08-04T21:12:28.514Z,1.13
2022-08-04T21:17:58.320Z,1.40
2022-08-04T21:20:29.942Z,1.15
2022-08-04T21:22:59.787Z,1.25
2022-08-04T21:25:29.253Z,1.10
2022-08-04T21:27:58.865Z,1.15
2022-08-04T21:30:26.651Z,1.50
2022-08-04T21:32:55.245Z,1.10
2022-08-04T21:35:37.183Z,1.23
2022-08-04T21:38:17.616Z,1.48
2022-08-04T21:40:53.638Z,1.40
2022-08-04T21:43:27.429Z,1.50
2022-08-04T21:45:56.069Z,1.35
2022-08-04T21:48:27.303Z,1.42
2022-08-04T21:50:55.332Z,1.25
2022-08-04T21:53:22.441Z,1.67
2022-08-04T21:56:06.846Z,1.50
2022-08-04T21:58:36.914Z,1.60
2022-08-04T22:01:13.342Z,1.42
2022-08-04T22:03:53.026Z,1.45
2022-08-04T22:06:28.594Z,1.15
2022-08-04T22:08:56.357Z,1.52
2022-08-04T22:11:48.790Z,1.15
2022-08-04T22:14:17.796Z,1.50
2022-08-04T22:16:56.629Z,1.50
2022-08-04T22:19:40.956Z,1.55
2022-08-04T22:22:13.431Z,1.55
2022-08-04T22:24:40.298Z,1.45
2022-08-04T22:27:11.779Z,1.67
2022-08-04T22:29:39.308Z,2.22
2022-08-04T22:32:11.198Z,1.85
2022-08-04T22:34:45.482Z,2.03
2022-08-04T22:37:19.827Z,1.63
2022-08-04T22:39:56.237Z,2.08
2022-08-04T22:42:24.059Z,1.70
2022-08-04T22:44:50.833Z,1.58
2022-08-04T22:47:20.188Z,1.83
2022-08-04T22:49:56.499Z,2.13
2022-08-04T22:52:36.766Z,2.00
2022-08-04T22:55:22.147Z,1.50
2022-08-04T22:58:04.885Z,1.48
2022-08-04T23:00:35.845Z,1.80
2022-08-04T23:03:06.698Z,1.98
2022-08-04T23:05:37.881Z,1.67
2022-08-04T23:08:05.348Z,1.77
2022-08-04T23:10:33.114Z,1.77
2022-08-04T23:13:04.190Z,1.75
2022-08-04T23:15:33.441Z,1.90
2022-08-04T23:18:00.658Z,1.98
2022-08-04T23:20:32.865Z,2.10
2022-08-04T23:23:12.477Z,2.20
2022-08-04T23:26:07.993Z,1.83
2022-08-04T23:28:31.175Z,1.85
2022-08-04T23:30:57.781Z,2.13
2022-08-04T23:33:24.786Z,2.30
2022-08-04T23:36:11.838Z,2.10
2022-08-04T23:38:39.212Z,2.35
2022-08-04T23:41:17.242Z,2.13
2022-08-04T23:43:55.473Z,2.30
2022-08-04T23:46:23.064Z,2.50
2022-08-04T23:48:49.730Z,2.67
2022-08-04T23:51:16.570Z,2.25
2022-08-04T23:54:01.870Z,2.35
2022-08-04T23:56:32.112Z,2.40
2022-08-04T23:59:00.126Z,2.30
